Time;durP1;ratioP1;P1;durP2;ratioP2;P2;SDS_P1;SDS_P2;PMS_P1;PMS_P2;Temp;Humidity;BMP_temperature;BMP_pressure;BME280_temperature;BME280_humidity;BME280_pressure;Samples;Min_cycle;Max_cycle;Signal;HPM_P1;HPM_P2
2023/10/29 00:01:53;;;;;;;11.07;1.00;;;;;;;;;;6276899;22;20077;-41
2023/10/29 00:04:21;;;;;;;7.00;1.10;;;;;;;;;;6275213;22;20031;-41
2023/10/29 00:06:49;;;;;;;12.57;1.00;;;;;;;;;;6269646;22;20025;-42
2023/10/29 00:09:17;;;;;;;11.43;1.00;;;;;;;;;;6250981;22;20444;-41
2023/10/29 00:11:44;;;;;;;8.65;1.10;;;;;;;;;;6269389;22;20023;-41
2023/10/29 00:14:12;;;;;;;7.25;0.73;;;;;;;;;;6284243;22;20035;-41
2023/10/29 00:16:41;;;;;;;11.63;1.07;;;;;;;;;;6266699;22;20015;-42
2023/10/29 00:19:09;;;;;;;6.70;1.08;;;;;;;;;;6274405;22;20015;-41
2023/10/29 00:21:38;;;;;;;8.77;0.70;;;;;;;;;;6249380;22;20038;-41
2023/10/29 00:24:07;;;;;;;11.52;1.00;;;;;;;;;;6281490;22;20015;-41
2023/10/29 00:26:35;;;;;;;7.28;1.10;;;;;;;;;;6269735;22;20026;-41
2023/10/29 00:29:09;;;;;;;17.50;1.97;;;;;;;;;;6276216;22;20477;-41
2023/10/29 00:31:38;;;;;;;7.20;0.63;;;;;;;;;;6266380;22;20026;-41
2023/10/29 00:34:07;;;;;;;8.73;0.65;;;;;;;;;;6275714;22;20023;-41
2023/10/29 00:36:35;;;;;;;7.60;0.93;;;;;;;;;;6243319;22;20011;-41
2023/10/29 00:39:03;;;;;;;8.35;0.88;;;;;;;;;;6270722;22;20011;-41
2023/10/29 00:41:31;;;;;;;11.53;0.87;;;;;;;;;;6271084;22;20039;-41
2023/10/29 00:43:59;;;;;;;7.78;0.60;;;;;;;;;;6274885;22;20065;-43
2023/10/29 00:46:27;;;;;;;8.15;1.70;;;;;;;;;;6242651;22;20027;-41
2023/10/29 00:48:54;;;;;;;8.77;1.33;;;;;;;;;;6271504;22;20023;-41
2023/10/29 00:51:23;;;;;;;9.32;1.33;;;;;;;;;;6272360;22;20019;-41
2023/10/29 00:53:51;;;;;;;10.17;1.10;;;;;;;;;;6280000;22;20019;-41
2023/10/29 00:56:19;;;;;;;8.23;0.80;;;;;;;;;;6263016;22;20035;-41
2023/10/29 00:58:47;;;;;;;11.65;0.90;;;;;;;;;;6248504;22;20069;-41
2023/10/29 01:01:15;;;;;;;11.50;0.90;;;;;;;;;;6269316;22;20468;-41
2023/10/29 01:03:45;;;;;;;7.85;0.80;;;;;;;;;;6275312;22;20042;-42
2023/10/29 01:06:13;;;;;;;7.23;0.80;;;;;;;;;;6282489;22;20446;-40
2023/10/29 01:08:47;;;;;;;12.57;0.90;;;;;;;;;;6269339;22;20022;-41
2023/10/29 01:11:15;;;;;;;9.05;0.85;;;;;;;;;;6277081;22;20019;-41
2023/10/29 01:13:43;;;;;;;6.82;0.60;;;;;;;;;;6267816;22;20015;-41
2023/10/29 01:16:15;;;;;;;9.55;1.05;;;;;;;;;;6278247;22;20012;-41
2023/10/29 01:18:43;;;;;;;7.57;0.87;;;;;;;;;;6265967;22;20019;-40
2023/10/29 01:21:11;;;;;;;9.40;1.15;;;;;;;;;;6280509;22;20521;-41
2023/10/29 01:23:39;;;;;;;11.30;1.20;;;;;;;;;;6270448;22;20023;-41
2023/10/29 01:26:08;;;;;;;10.63;0.80;;;;;;;;;;6270552;22;20053;-41
2023/10/29 01:28:37;;;;;;;9.82;0.70;;;;;;;;;;6270775;22;20579;-42
2023/10/29 01:31:06;;;;;;;13.40;1.13;;;;;;;;;;6269925;22;20026;-41
2023/10/29 01:33:34;;;;;;;11.35;0.95;;;;;;;;;;6270775;22;20007;-41
2023/10/29 01:36:02;;;;;;;7.75;1.08;;;;;;;;;;6274339;22;20110;-41
2023/10/29 01:38:30;;;;;;;10.40;0.70;;;;;;;;;;6260732;22;20015;-41
2023/10/29 01:40:58;;;;;;;12.65;1.08;;;;;;;;;;6274965;22;20018;-42
2023/10/29 01:43:27;;;;;;;9.23;1.17;;;;;;;;;;6266695;22;20015;-41
2023/10/29 01:45:54;;;;;;;11.48;1.35;;;;;;;;;;6279090;22;20342;-41
2023/10/29 01:48:31;;;;;;;11.00;0.93;;;;;;;;;;6275276;22;20073;-41
2023/10/29 01:51:04;;;;;;;8.48;0.77;;;;;;;;;;6240253;22;20041;-41
2023/10/29 01:53:32;;;;;;;6.47;0.80;;;;;;;;;;6247711;22;20018;-42
2023/10/29 01:56:00;;;;;;;10.20;1.33;;;;;;;;;;6264929;22;20015;-40
2023/10/29 01:58:29;;;;;;;11.00;1.05;;;;;;;;;;6271523;22;20022;-41
2023/10/29 02:00:56;;;;;;;9.48;1.45;;;;;;;;;;6241426;22;20442;-41
2023/10/29 02:03:25;;;;;;;10.40;1.27;;;;;;;;;;6277819;22;20019;-41
2023/10/29 02:05:54;;;;;;;11.38;1.02;;;;;;;;;;6272888;22;20015;-42
2023/10/29 02:08:22;;;;;;;7.47;1.47;;;;;;;;;;6259945;22;20507;-40
2023/10/29 02:10:50;;;;;;;5.60;0.70;;;;;;;;;;6268317;22;20016;-41
2023/10/29 02:13:21;;;;;;;11.90;1.08;;;;;;;;;;6251868;22;20119;-41
2023/10/29 02:15:50;;;;;;;6.80;0.65;;;;;;;;;;6278644;22;20019;-41
2023/10/29 02:18:18;;;;;;;9.57;1.10;;;;;;;;;;6266321;22;20016;-40
2023/10/29 02:20:46;;;;;;;11.60;0.70;;;;;;;;;;6276155;22;20016;-41
2023/10/29 02:23:15;;;;;;;11.30;1.02;;;;;;;;;;6283919;22;20529;-41
2023/10/29 02:25:43;;;;;;;11.52;1.08;;;;;;;;;;6247533;22;20023;-41
2023/10/29 02:28:14;;;;;;;13.02;0.93;;;;;;;;;;6278849;22;20011;-41
2023/10/29 02:30:42;;;;;;;8.82;0.98;;;;;;;;;;6275135;22;20022;-43
2023/10/29 02:33:10;;;;;;;8.73;1.00;;;;;;;;;;6277363;22;20020;-40
2023/10/29 02:35:38;;;;;;;12.30;1.42;;;;;;;;;;6274121;22;20019;-41
2023/10/29 02:38:06;;;;;;;6.68;1.05;;;;;;;;;;6269802;22;20061;-41
2023/10/29 02:40:35;;;;;;;11.15;1.10;;;;;;;;;;6269199;22;20019;-41
2023/10/29 02:43:03;;;;;;;8.60;1.40;;;;;;;;;;6274863;22;20491;-41
2023/10/29 02:45:31;;;;;;;7.17;0.77;;;;;;;;;;6273208;22;20011;-41
2023/10/29 02:47:59;;;;;;;16.05;1.48;;;;;;;;;;6279174;22;20386;-41
2023/10/29 02:50:27;;;;;;;7.50;0.70;;;;;;;;;;6276736;22;20022;-41
2023/10/29 02:52:54;;;;;;;11.15;0.75;;;;;;;;;;6276629;22;20496;-41
2023/10/29 02:55:26;;;;;;;9.63;1.13;;;;;;;;;;6287908;22;20011;-40
2023/10/29 02:57:55;;;;;;;6.87;1.23;;;;;;;;;;6279663;22;20021;-40
2023/10/29 03:00:23;;;;;;;7.22;1.00;;;;;;;;;;6247139;22;20015;-41
2023/10/29 03:03:21;;;;;;;8.98;1.05;;;;;;;;;;6278046;22;20011;-40
2023/10/29 03:05:49;;;;;;;9.60;1.35;;;;;;;;;;6243035;22;20346;-40
2023/10/29 03:08:33;;;;;;;11.30;0.93;;;;;;;;;;6264365;22;20015;-43
2023/10/29 03:11:01;;;;;;;10.43;0.80;;;;;;;;;;6242813;22;20018;-43
2023/10/29 03:13:30;;;;;;;10.40;1.05;;;;;;;;;;6278906;22;20038;-41
2023/10/29 03:15:58;;;;;;;11.02;1.23;;;;;;;;;;6248074;22;20049;-42
2023/10/29 03:18:26;;;;;;;10.25;0.80;;;;;;;;;;6278054;22;20107;-42
2023/10/29 03:20:53;;;;;;;9.18;1.08;;;;;;;;;;6280517;22;20038;-41
2023/10/29 03:23:21;;;;;;;9.47;1.13;;;;;;;;;;6274636;22;20025;-41
2023/10/29 03:25:49;;;;;;;9.80;0.90;;;;;;;;;;6287017;22;20584;-41
2023/10/29 03:28:17;;;;;;;8.30;0.77;;;;;;;;;;6274528;22;20485;-41
2023/10/29 03:30:46;;;;;;;8.10;0.88;;;;;;;;;;6274715;22;20457;-41
2023/10/29 03:33:19;;;;;;;6.22;0.50;;;;;;;;;;6269669;22;20033;-41
2023/10/29 03:35:47;;;;;;;14.33;1.53;;;;;;;;;;6254261;22;20011;-41
2023/10/29 03:38:15;;;;;;;9.35;0.70;;;;;;;;;;6279464;22;20072;-41
2023/10/29 03:40:42;;;;;;;9.02;0.90;;;;;;;;;;6269104;22;20019;-43
2023/10/29 03:43:10;;;;;;;5.85;0.63;;;;;;;;;;6282278;22;20015;-41
2023/10/29 03:45:38;;;;;;;9.85;0.60;;;;;;;;;;6269583;22;20011;-42
2023/10/29 03:48:07;;;;;;;7.23;0.50;;;;;;;;;;6285476;22;20475;-42
2023/10/29 03:50:35;;;;;;;8.35;0.93;;;;;;;;;;6275125;22;20090;-40
2023/10/29 03:53:02;;;;;;;6.38;0.90;;;;;;;;;;6255615;22;20086;-41
2023/10/29 03:55:30;;;;;;;7.50;1.13;;;;;;;;;;6275776;22;20015;-40
2023/10/29 03:58:00;;;;;;;8.32;0.68;;;;;;;;;;6249204;22;20015;-40
2023/10/29 04:00:28;;;;;;;7.67;0.90;;;;;;;;;;6253324;22;20034;-41
2023/10/29 04:02:56;;;;;;;8.98;0.93;;;;;;;;;;6281467;22;20011;-41
2023/10/29 04:05:27;;;;;;;5.18;0.68;;;;;;;;;;6272092;22;20213;-41
2023/10/29 04:07:54;;;;;;;6.18;0.60;;;;;;;;;;6280625;22;20090;-41
2023/10/29 04:10:30;;;;;;;8.75;0.50;;;;;;;;;;6286383;22;20041;-42
2023/10/29 04:12:57;;;;;;;5.73;0.83;;;;;;;;;;6275599;22;20027;-41
2023/10/29 04:15:25;;;;;;;7.03;1.05;;;;;;;;;;6242216;22;20022;-40
2023/10/29 04:17:53;;;;;;;3.97;0.50;;;;;;;;;;6279082;22;20015;-41
2023/10/29 04:20:20;;;;;;;5.55;0.77;;;;;;;;;;6278457;22;20038;-41
2023/10/29 04:22:49;;;;;;;6.70;0.65;;;;;;;;;;6252994;22;20015;-41
2023/10/29 04:25:17;;;;;;;8.03;0.40;;;;;;;;;;6280575;22;20193;-40
2023/10/29 04:27:46;;;;;;;3.90;0.95;;;;;;;;;;6279942;22;20094;-40
2023/10/29 04:30:13;;;;;;;6.82;0.43;;;;;;;;;;6280752;22;20015;-41
2023/10/29 04:32:42;;;;;;;11.73;0.85;;;;;;;;;;6265216;22;20012;-41
2023/10/29 04:35:10;;;;;;;4.97;0.60;;;;;;;;;;6271692;22;20043;-41
2023/10/29 04:37:38;;;;;;;6.07;0.40;;;;;;;;;;6249110;22;20019;-41
2023/10/29 04:40:08;;;;;;;5.18;0.40;;;;;;;;;;6242066;22;20454;-40
2023/10/29 04:42:39;;;;;;;11.05;0.70;;;;;;;;;;6269813;22;20019;-40
2023/10/29 04:45:11;;;;;;;5.45;0.63;;;;;;;;;;6278529;22;20046;-40
2023/10/29 04:47:39;;;;;;;5.28;0.32;;;;;;;;;;6272579;22;20026;-40
2023/10/29 04:50:07;;;;;;;4.23;0.63;;;;;;;;;;6273385;22;20456;-40
2023/10/29 04:52:35;;;;;;;4.75;0.50;;;;;;;;;;6259531;22;20030;-41
2023/10/29 04:55:09;;;;;;;5.75;0.80;;;;;;;;;;6269594;22;20011;-43
2023/10/29 04:57:37;;;;;;;4.75;0.50;;;;;;;;;;6274319;22;20011;-41
2023/10/29 05:00:06;;;;;;;6.63;0.60;;;;;;;;;;6262238;22;20084;-41
2023/10/29 05:02:35;;;;;;;7.70;0.80;;;;;;;;;;6245900;22;20030;-41
2023/10/29 05:05:05;;;;;;;7.70;1.00;;;;;;;;;;6268385;22;20091;-40
2023/10/29 05:07:35;;;;;;;10.52;0.90;;;;;;;;;;6279154;22;20015;-40
2023/10/29 05:10:03;;;;;;;5.65;0.68;;;;;;;;;;6240109;22;20357;-40
2023/10/29 05:12:32;;;;;;;5.15;0.70;;;;;;;;;;6250997;22;20019;-40
2023/10/29 05:15:00;;;;;;;5.33;0.57;;;;;;;;;;6270216;22;20022;-41
2023/10/29 05:17:29;;;;;;;6.75;0.50;;;;;;;;;;6262361;22;20108;-41
2023/10/29 05:20:00;;;;;;;4.63;0.45;;;;;;;;;;6271079;22;20340;-41
2023/10/29 05:22:27;;;;;;;6.25;0.75;;;;;;;;;;6277430;22;20015;-41
2023/10/29 05:24:55;;;;;;;7.05;1.13;;;;;;;;;;6265680;22;20069;-41
2023/10/29 05:27:22;;;;;;;7.63;0.50;;;;;;;;;;6248878;22;20015;-41
2023/10/29 05:29:51;;;;;;;9.18;0.63;;;;;;;;;;6265032;22;20080;-40
2023/10/29 05:32:19;;;;;;;5.63;0.80;;;;;;;;;;6248642;22;20524;-40
2023/10/29 05:34:47;;;;;;;5.55;0.85;;;;;;;;;;6262555;22;20744;-40
2023/10/29 05:37:15;;;;;;;6.88;0.55;;;;;;;;;;6265442;22;20011;-41
2023/10/29 05:39:43;;;;;;;10.57;0.90;;;;;;;;;;6267667;22;20039;-41
2023/10/29 05:42:13;;;;;;;7.25;1.08;;;;;;;;;;6273151;22;20480;-41
2023/10/29 05:44:41;;;;;;;8.27;0.85;;;;;;;;;;6265247;22;20015;-41
2023/10/29 05:47:10;;;;;;;7.38;0.60;;;;;;;;;;6270586;22;20402;-41
2023/10/29 05:49:37;;;;;;;6.97;0.82;;;;;;;;;;6270480;22;20090;-42
2023/10/29 05:52:05;;;;;;;7.10;0.70;;;;;;;;;;6263411;22;20015;-42
2023/10/29 05:54:33;;;;;;;6.25;0.50;;;;;;;;;;6244725;22;20050;-41
2023/10/29 05:57:01;;;;;;;6.32;0.40;;;;;;;;;;6263852;22;20015;-41
2023/10/29 05:59:29;;;;;;;6.22;0.50;;;;;;;;;;6273809;22;20023;-41
2023/10/29 06:01:57;;;;;;;7.38;0.85;;;;;;;;;;6261836;22;20435;-41
2023/10/29 06:04:27;;;;;;;8.07;0.30;;;;;;;;;;6274569;22;20048;-41
2023/10/29 06:06:55;;;;;;;8.38;0.85;;;;;;;;;;6269049;22;20019;-41
2023/10/29 06:09:23;;;;;;;7.03;1.05;;;;;;;;;;6266424;22;20104;-41
2023/10/29 06:11:52;;;;;;;8.20;0.90;;;;;;;;;;6244017;22;20061;-40
2023/10/29 06:14:22;;;;;;;10.02;1.80;;;;;;;;;;6273301;22;20126;-41
2023/10/29 06:16:55;;;;;;;7.37;1.20;;;;;;;;;;6270022;22;20019;-40
2023/10/29 06:19:38;;;;;;;9.98;0.80;;;;;;;;;;6269118;22;20015;-40
2023/10/29 06:22:07;;;;;;;6.57;0.43;;;;;;;;;;6265129;22;20021;-41
2023/10/29 06:24:37;;;;;;;6.22;0.40;;;;;;;;;;6271173;22;20011;-40
2023/10/29 06:27:04;;;;;;;6.53;0.50;;;;;;;;;;6267674;22;20042;-41
2023/10/29 06:29:33;;;;;;;9.70;0.53;;;;;;;;;;6248938;22;20015;-41
2023/10/29 06:32:03;;;;;;;11.02;1.05;;;;;;;;;;6272262;22;20448;-41
2023/10/29 06:34:31;;;;;;;11.10;1.13;;;;;;;;;;6256174;22;20073;-41
2023/10/29 06:37:00;;;;;;;6.72;0.68;;;;;;;;;;6266667;22;20350;-41
2023/10/29 06:39:29;;;;;;;12.80;1.38;;;;;;;;;;6268022;22;20027;-42
2023/10/29 06:41:59;;;;;;;8.70;0.60;;;;;;;;;;6264637;22;20022;-41
2023/10/29 06:44:27;;;;;;;7.95;0.52;;;;;;;;;;6237343;22;20468;-40
2023/10/29 06:47:01;;;;;;;10.68;0.75;;;;;;;;;;6271059;22;20015;-40
2023/10/29 06:49:29;;;;;;;9.63;0.80;;;;;;;;;;6240702;22;20023;-40
2023/10/29 06:51:57;;;;;;;11.27;1.15;;;;;;;;;;6266651;22;20019;-41
2023/10/29 06:54:26;;;;;;;8.70;0.90;;;;;;;;;;6262286;22;20019;-40
2023/10/29 06:56:55;;;;;;;8.50;0.50;;;;;;;;;;6247044;22;20023;-42
2023/10/29 06:59:23;;;;;;;7.07;0.65;;;;;;;;;;6263445;22;20012;-40
2023/10/29 07:01:52;;;;;;;9.43;0.65;;;;;;;;;;6264668;22;20274;-40
2023/10/29 07:04:19;;;;;;;6.03;0.50;;;;;;;;;;6277903;22;20019;-41
2023/10/29 07:06:49;;;;;;;10.23;0.70;;;;;;;;;;6268737;22;20226;-40
2023/10/29 07:09:16;;;;;;;10.55;0.60;;;;;;;;;;6280908;22;20018;-40
2023/10/29 07:11:46;;;;;;;6.10;0.47;;;;;;;;;;6269895;22;20023;-40
2023/10/29 07:14:20;;;;;;;8.18;1.02;;;;;;;;;;6279535;22;20019;-40
2023/10/29 07:16:49;;;;;;;8.75;0.95;;;;;;;;;;6273540;22;20011;-40
2023/10/29 07:19:18;;;;;;;13.07;1.07;;;;;;;;;;6241675;22;20019;-41
2023/10/29 07:21:46;;;;;;;8.52;0.80;;;;;;;;;;6271314;22;20023;-40
2023/10/29 07:24:14;;;;;;;8.85;0.85;;;;;;;;;;6272226;22;20031;-40
2023/10/29 07:26:41;;;;;;;7.65;0.65;;;;;;;;;;6275827;22;20018;-40
2023/10/29 07:29:11;;;;;;;9.85;0.80;;;;;;;;;;6273082;22;20049;-40
2023/10/29 07:31:39;;;;;;;11.53;0.70;;;;;;;;;;6268464;22;20018;-42
2023/10/29 07:34:06;;;;;;;10.77;0.80;;;;;;;;;;6280047;22;20012;-40
2023/10/29 07:36:35;;;;;;;7.22;0.52;;;;;;;;;;6276317;22;20011;-41
2023/10/29 07:39:03;;;;;;;6.25;0.68;;;;;;;;;;6247443;22;20467;-40
2023/10/29 07:41:31;;;;;;;7.50;0.60;;;;;;;;;;6270963;22;20436;-40
2023/10/29 07:43:58;;;;;;;11.83;0.93;;;;;;;;;;6269565;22;20015;-43
2023/10/29 07:46:32;;;;;;;8.23;0.50;;;;;;;;;;6274637;22;20023;-41
2023/10/29 07:48:59;;;;;;;5.03;0.60;;;;;;;;;;6243062;22;20042;-40
2023/10/29 07:51:27;;;;;;;9.30;0.70;;;;;;;;;;6266267;22;20597;-43
2023/10/29 07:53:55;;;;;;;6.22;1.13;;;;;;;;;;6244705;22;20011;-41
2023/10/29 07:56:25;;;;;;;7.47;0.87;;;;;;;;;;6276696;22;20446;-40
2023/10/29 07:58:53;;;;;;;7.00;0.47;;;;;;;;;;6274921;22;20019;-41
2023/10/29 08:01:21;;;;;;;6.95;0.40;;;;;;;;;;6273534;22;20019;-41
2023/10/29 08:03:50;;;;;;;6.60;0.50;;;;;;;;;;6259099;22;20018;-40
2023/10/29 08:06:19;;;;;;;4.90;0.30;;;;;;;;;;6268137;22;20090;-41
2023/10/29 08:08:46;;;;;;;6.23;0.50;;;;;;;;;;6245672;22;20093;-40
2023/10/29 08:11:18;;;;;;;6.43;0.50;;;;;;;;;;6240335;22;20209;-40
2023/10/29 08:13:46;;;;;;;5.28;0.30;;;;;;;;;;6280215;22;20086;-41
2023/10/29 08:16:14;;;;;;;5.55;0.32;;;;;;;;;;6264001;22;20299;-40
2023/10/29 08:18:44;;;;;;;7.75;0.40;;;;;;;;;;6276394;22;20261;-40
2023/10/29 08:21:17;;;;;;;7.50;1.00;;;;;;;;;;6268916;22;20434;-40
2023/10/29 08:23:46;;;;;;;6.55;0.40;;;;;;;;;;6281401;22;20540;-40
2023/10/29 08:26:14;;;;;;;7.80;0.50;;;;;;;;;;6242948;22;20438;-40
2023/10/29 08:28:47;;;;;;;5.93;0.40;;;;;;;;;;6265305;22;20445;-41
2023/10/29 08:31:15;;;;;;;5.93;0.50;;;;;;;;;;6246066;22;20019;-40
2023/10/29 08:33:43;;;;;;;3.87;0.50;;;;;;;;;;6263088;22;20018;-40
2023/10/29 08:36:11;;;;;;;7.20;0.60;;;;;;;;;;6276044;22;20096;-42
2023/10/29 08:38:40;;;;;;;5.53;0.60;;;;;;;;;;6270550;22;20501;-41
2023/10/29 08:41:14;;;;;;;10.43;1.20;;;;;;;;;;6270867;22;20015;-42
2023/10/29 08:43:42;;;;;;;7.05;0.60;;;;;;;;;;6267967;22;20089;-41
2023/10/29 08:46:10;;;;;;;9.17;0.80;;;;;;;;;;6258647;22;20015;-41
2023/10/29 08:48:37;;;;;;;6.78;1.05;;;;;;;;;;6273127;22;20415;-41
2023/10/29 08:51:05;;;;;;;5.07;0.40;;;;;;;;;;6267761;22;20018;-42
2023/10/29 08:53:34;;;;;;;7.45;0.80;;;;;;;;;;6274269;22;20441;-42
2023/10/29 08:56:05;;;;;;;9.35;0.73;;;;;;;;;;6267112;22;20113;-41
2023/10/29 08:58:34;;;;;;;5.33;0.70;;;;;;;;;;6272224;22;20015;-41
2023/10/29 09:01:06;;;;;;;9.10;0.68;;;;;;;;;;6271718;22;20453;-41
2023/10/29 09:03:34;;;;;;;7.78;1.17;;;;;;;;;;6268224;22;20026;-41
2023/10/29 09:06:04;;;;;;;8.13;1.00;;;;;;;;;;6273276;22;20022;-41
2023/10/29 09:08:33;;;;;;;11.27;1.42;;;;;;;;;;6261270;22;20690;-41
2023/10/29 09:11:02;;;;;;;10.37;1.27;;;;;;;;;;6271216;22;20204;-41
2023/10/29 09:13:31;;;;;;;8.45;1.00;;;;;;;;;;6273959;22;20018;-40
2023/10/29 09:16:09;;;;;;;12.63;1.55;;;;;;;;;;6273809;22;20426;-41
2023/10/29 09:18:37;;;;;;;7.30;0.80;;;;;;;;;;6169171;23;20047;-41
2023/10/29 09:21:05;;;;;;;9.38;1.10;;;;;;;;;;6204049;22;20016;-42
2023/10/29 09:23:33;;;;;;;10.93;1.20;;;;;;;;;;6201903;22;20214;-41
2023/10/29 09:26:00;;;;;;;12.18;1.10;;;;;;;;;;6206139;22;20110;-41
2023/10/29 09:28:28;;;;;;;11.00;1.63;;;;;;;;;;6202769;23;20354;-43
2023/10/29 09:30:57;;;;;;;10.15;1.05;;;;;;;;;;6212141;22;20355;-41
2023/10/29 09:33:30;;;;;;;10.02;1.13;;;;;;;;;;6202851;22;20065;-41
2023/10/29 09:36:00;;;;;;;11.50;1.30;;;;;;;;;;6203947;23;20362;-41
2023/10/29 09:38:27;;;;;;;9.93;1.10;;;;;;;;;;6203010;22;20458;-41
2023/10/29 09:40:55;;;;;;;10.95;1.30;;;;;;;;;;6189893;22;20013;-41
2023/10/29 09:43:26;;;;;;;11.15;0.88;;;;;;;;;;6205342;22;20036;-41
2023/10/29 09:45:56;;;;;;;9.77;0.88;;;;;;;;;;6205929;22;20094;-42
2023/10/29 09:48:25;;;;;;;10.83;1.27;;;;;;;;;;6198035;23;20048;-42
2023/10/29 09:50:53;;;;;;;9.45;1.60;;;;;;;;;;6208556;22;20051;-42
2023/10/29 09:53:21;;;;;;;11.40;1.67;;;;;;;;;;6196253;22;20028;-42
2023/10/29 09:55:50;;;;;;;10.07;1.20;;;;;;;;;;6195713;22;20027;-42
2023/10/29 09:58:22;;;;;;;9.68;1.40;;;;;;;;;;6192156;23;20433;-42
2023/10/29 10:00:50;;;;;;;12.80;1.07;;;;;;;;;;6205713;22;20026;-42
2023/10/29 10:03:20;;;;;;;12.43;2.15;;;;;;;;;;6200049;22;20070;-42
2023/10/29 10:05:50;;;;;;;14.02;1.35;;;;;;;;;;6205645;22;20097;-42
2023/10/29 10:08:23;;;;;;;10.43;1.23;;;;;;;;;;6192050;22;20543;-42
2023/10/29 10:10:51;;;;;;;11.52;1.25;;;;;;;;;;6204975;22;20020;-43
2023/10/29 10:13:33;;;;;;;13.63;2.17;;;;;;;;;;6205612;22;20089;-43
2023/10/29 10:16:14;;;;;;;15.73;1.67;;;;;;;;;;6213472;22;20020;-44
2023/10/29 10:18:52;;;;;;;19.17;1.30;;;;;;;;;;6206535;22;20016;-42
2023/10/29 10:21:23;;;;;;;12.88;1.45;;;;;;;;;;6192217;23;20209;-42
2023/10/29 10:23:51;;;;;;;12.15;1.40;;;;;;;;;;6211322;23;20020;-43
2023/10/29 10:26:29;;;;;;;11.57;1.43;;;;;;;;;;6201256;23;20014;-42
2023/10/29 10:28:58;;;;;;;13.27;1.45;;;;;;;;;;6212408;23;20015;-42
2023/10/29 10:31:27;;;;;;;12.18;1.23;;;;;;;;;;6200240;23;20654;-43
2023/10/29 10:34:09;;;;;;;11.30;1.50;;;;;;;;;;6210356;23;20115;-42
2023/10/29 10:36:39;;;;;;;8.00;1.10;;;;;;;;;;6201619;23;20426;-42
2023/10/29 10:39:08;;;;;;;11.33;1.70;;;;;;;;;;6208089;23;20039;-42
2023/10/29 10:41:43;;;;;;;14.00;1.45;;;;;;;;;;6202006;23;20184;-41
2023/10/29 10:44:11;;;;;;;12.95;1.90;;;;;;;;;;6185377;23;20030;-42
2023/10/29 10:46:42;;;;;;;13.02;1.30;;;;;;;;;;6210848;22;20023;-44
2023/10/29 10:49:11;;;;;;;15.00;0.90;;;;;;;;;;6198039;23;20020;-41
2023/10/29 10:51:40;;;;;;;27.93;1.80;;;;;;;;;;6206432;23;20351;-42
2023/10/29 10:54:08;;;;;;;12.18;1.05;;;;;;;;;;6200769;22;20016;-41
2023/10/29 10:56:38;;;;;;;10.15;1.00;;;;;;;;;;6213867;22;20451;-42
2023/10/29 10:59:07;;;;;;;13.50;1.77;;;;;;;;;;6192550;23;20103;-42
2023/10/29 11:01:44;;;;;;;8.95;1.13;;;;;;;;;;6219236;23;20043;-43
2023/10/29 11:04:18;;;;;;;13.83;1.73;;;;;;;;;;6206332;23;20111;-42
2023/10/29 11:06:49;;;;;;;11.85;1.13;;;;;;;;;;6199885;23;20020;-42
2023/10/29 11:09:19;;;;;;;17.00;2.67;;;;;;;;;;6210779;22;20012;-43
2023/10/29 11:11:49;;;;;;;15.32;2.05;;;;;;;;;;6194710;23;20304;-41
2023/10/29 11:14:17;;;;;;;8.70;1.20;;;;;;;;;;6215091;23;20038;-41
2023/10/29 11:16:46;;;;;;;10.73;1.50;;;;;;;;;;6206909;22;20106;-43
2023/10/29 11:19:32;;;;;;;7.47;1.40;;;;;;;;;;6271498;22;20514;-42
2023/10/29 11:22:14;;;;;;;16.35;1.25;;;;;;;;;;6269638;22;20465;-42
2023/10/29 11:25:02;;;;;;;6.00;0.70;;;;;;;;;;6255380;22;20015;-42
2023/10/29 11:27:34;;;;;;;11.80;1.15;;;;;;;;;;6265351;22;20023;-43
2023/10/29 11:30:12;;;;;;;11.73;1.20;;;;;;;;;;6258927;22;20015;-42
2023/10/29 11:32:42;;;;;;;11.57;1.40;;;;;;;;;;6257917;22;20011;-43
2023/10/29 11:35:21;;;;;;;12.65;0.90;;;;;;;;;;6267675;22;20429;-42
2023/10/29 11:37:51;;;;;;;10.13;0.70;;;;;;;;;;6258424;22;20100;-44
2023/10/29 11:40:33;;;;;;;4.85;0.70;;;;;;;;;;6277407;22;20026;-41
2023/10/29 11:43:15;;;;;;;9.13;0.70;;;;;;;;;;6250710;22;20026;-41
2023/10/29 11:45:52;;;;;;;5.85;0.68;;;;;;;;;;6261751;22;20350;-41
2023/10/29 11:48:20;;;;;;;7.25;0.50;;;;;;;;;;6271532;22;20023;-43
2023/10/29 11:51:03;;;;;;;13.80;1.50;;;;;;;;;;6242657;22;20022;-42
2023/10/29 11:53:33;;;;;;;11.10;1.13;;;;;;;;;;6250107;22;20019;-43
2023/10/29 11:56:10;;;;;;;6.23;0.70;;;;;;;;;;6263602;22;20066;-43
2023/10/29 11:58:38;;;;;;;5.93;0.80;;;;;;;;;;6259377;22;20342;-44
2023/10/29 12:01:06;;;;;;;9.65;0.90;;;;;;;;;;6275577;22;20019;-41
2023/10/29 12:03:38;;;;;;;7.53;0.90;;;;;;;;;;6254016;22;20325;-42
2023/10/29 12:06:06;;;;;;;5.55;1.38;;;;;;;;;;6241173;22;20015;-43
2023/10/29 12:08:36;;;;;;;6.97;1.03;;;;;;;;;;6236336;22;20582;-42
2023/10/29 12:11:06;;;;;;;6.32;0.77;;;;;;;;;;6238924;22;20015;-42
2023/10/29 12:13:41;;;;;;;10.05;0.90;;;;;;;;;;6262811;22;20284;-43
2023/10/29 12:16:10;;;;;;;8.82;0.80;;;;;;;;;;6239074;22;20019;-42
2023/10/29 12:18:49;;;;;;;8.07;0.80;;;;;;;;;;6183636;22;1292369;-43
2023/10/29 12:21:17;;;;;;;6.63;1.45;;;;;;;;;;6260727;22;20065;-42
2023/10/29 12:23:51;;;;;;;7.43;1.05;;;;;;;;;;6279204;22;20022;-41
2023/10/29 12:26:20;;;;;;;8.30;0.90;;;;;;;;;;6253983;22;20090;-43
2023/10/29 12:28:49;;;;;;;5.82;0.80;;;;;;;;;;6272478;22;20045;-41
2023/10/29 12:31:23;;;;;;;6.90;0.50;;;;;;;;;;6259750;22;20460;-42
2023/10/29 12:33:55;;;;;;;7.22;0.88;;;;;;;;;;6271728;22;20041;-43
2023/10/29 12:36:23;;;;;;;7.95;0.88;;;;;;;;;;6261425;22;20015;-40
2023/10/29 12:38:53;;;;;;;7.32;0.65;;;;;;;;;;6281294;22;20027;-42
2023/10/29 12:41:23;;;;;;;5.15;0.43;;;;;;;;;;6257533;22;20019;-43
2023/10/29 12:43:52;;;;;;;5.37;0.47;;;;;;;;;;6278128;22;20023;-42
2023/10/29 12:46:29;;;;;;;4.82;0.63;;;;;;;;;;6270709;22;20050;-42
2023/10/29 12:49:01;;;;;;;3.97;0.50;;;;;;;;;;6258818;22;20016;-43
2023/10/29 12:51:30;;;;;;;4.13;0.40;;;;;;;;;;6272985;22;20015;-43
2023/10/29 12:54:13;;;;;;;6.05;0.40;;;;;;;;;;6252685;22;20381;-43
2023/10/29 12:56:57;;;;;;;5.07;0.53;;;;;;;;;;6270755;22;20015;-43
2023/10/29 12:59:32;;;;;;;4.93;0.50;;;;;;;;;;6274005;22;20424;-42
2023/10/29 13:02:05;;;;;;;6.00;0.50;;;;;;;;;;6270215;22;20390;-43
2023/10/29 13:04:34;;;;;;;4.00;0.45;;;;;;;;;;6273880;22;20019;-42
2023/10/29 13:07:07;;;;;;;7.05;0.57;;;;;;;;;;6232849;22;20019;-42
2023/10/29 13:09:52;;;;;;;3.40;0.40;;;;;;;;;;6279352;22;20357;-42
2023/10/29 13:12:19;;;;;;;5.88;0.43;;;;;;;;;;6278016;22;20023;-42
2023/10/29 13:14:47;;;;;;;5.10;0.52;;;;;;;;;;6255244;22;20693;-42
2023/10/29 13:17:15;;;;;;;3.45;0.38;;;;;;;;;;6264762;22;20026;-43
2023/10/29 13:19:43;;;;;;;5.60;0.43;;;;;;;;;;6259339;22;20022;-43
2023/10/29 13:22:11;;;;;;;3.60;0.40;;;;;;;;;;6244357;22;20021;-44
2023/10/29 13:24:40;;;;;;;4.63;0.60;;;;;;;;;;6267213;22;20027;-44
2023/10/29 13:27:11;;;;;;;3.40;0.70;;;;;;;;;;6244668;22;20020;-44
2023/10/29 13:29:48;;;;;;;4.55;0.50;;;;;;;;;;6262278;22;20441;-43
2023/10/29 13:32:16;;;;;;;7.80;0.80;;;;;;;;;;6243630;22;20015;-44
2023/10/29 13:34:48;;;;;;;4.27;0.50;;;;;;;;;;6230271;22;20516;-44
2023/10/29 13:37:16;;;;;;;6.10;0.70;;;;;;;;;;6265516;22;20015;-44
2023/10/29 13:39:45;;;;;;;4.70;0.52;;;;;;;;;;6253248;22;20022;-44
2023/10/29 13:42:13;;;;;;;8.50;0.73;;;;;;;;;;6274420;22;20022;-45
2023/10/29 13:44:41;;;;;;;4.95;0.50;;;;;;;;;;6259803;22;20521;-44
2023/10/29 13:47:09;;;;;;;4.87;0.50;;;;;;;;;;6245535;22;20023;-41
2023/10/29 13:49:38;;;;;;;6.20;0.40;;;;;;;;;;6263555;22;20405;-42
2023/10/29 13:52:08;;;;;;;3.90;0.40;;;;;;;;;;6275208;22;20019;-42
2023/10/29 13:54:37;;;;;;;5.97;0.43;;;;;;;;;;6269748;22;20008;-44
2023/10/29 13:57:06;;;;;;;8.10;0.68;;;;;;;;;;6263953;22;20015;-40
2023/10/29 13:59:37;;;;;;;8.17;0.60;;;;;;;;;;6267597;22;20019;-44
2023/10/29 14:02:06;;;;;;;8.30;1.67;;;;;;;;;;6260504;22;20025;-44
2023/10/29 14:04:34;;;;;;;9.43;0.80;;;;;;;;;;6245987;22;20429;-43
2023/10/29 14:07:02;;;;;;;10.35;1.52;;;;;;;;;;6258937;22;20026;-42
2023/10/29 14:09:31;;;;;;;7.85;0.88;;;;;;;;;;6274013;22;20096;-43
2023/10/29 14:11:59;;;;;;;6.27;0.50;;;;;;;;;;6264394;22;20050;-43
2023/10/29 14:14:29;;;;;;;11.50;0.85;;;;;;;;;;6242160;22;20113;-43
2023/10/29 14:16:58;;;;;;;8.30;0.63;;;;;;;;;;6261587;22;20585;-43
2023/10/29 14:19:27;;;;;;;6.85;0.82;;;;;;;;;;6230286;22;20290;-43
2023/10/29 14:21:56;;;;;;;6.60;1.02;;;;;;;;;;6267011;22;20019;-43
2023/10/29 14:24:30;;;;;;;9.13;0.90;;;;;;;;;;6277867;22;20097;-43
2023/10/29 14:26:58;;;;;;;7.78;0.90;;;;;;;;;;6270917;22;20459;-44
2023/10/29 14:29:26;;;;;;;8.73;0.80;;;;;;;;;;6269019;22;20057;-44
2023/10/29 14:32:01;;;;;;;8.10;0.63;;;;;;;;;;6277280;22;20019;-42
2023/10/29 14:34:29;;;;;;;6.25;0.63;;;;;;;;;;6271907;22;20015;-43
2023/10/29 14:36:57;;;;;;;6.90;0.90;;;;;;;;;;6274883;22;20175;-45
2023/10/29 14:39:25;;;;;;;8.23;0.70;;;;;;;;;;6258479;22;20027;-43
2023/10/29 14:41:52;;;;;;;6.50;0.90;;;;;;;;;;6267383;22;20015;-42
2023/10/29 14:44:21;;;;;;;9.23;0.90;;;;;;;;;;6259078;22;20026;-42
2023/10/29 14:46:49;;;;;;;5.95;0.90;;;;;;;;;;6268361;22;20024;-43
2023/10/29 14:49:18;;;;;;;9.23;1.43;;;;;;;;;;6258951;22;20320;-43
2023/10/29 14:51:46;;;;;;;8.68;0.88;;;;;;;;;;6246885;22;20011;-42
2023/10/29 14:54:21;;;;;;;7.90;1.00;;;;;;;;;;6253743;22;20019;-44